Annandale, Virginia
Current Conditions -  °F | °C
As of 10:58 AM on Sunday 23 Nov 2014 (Local Time) from KDAA Reporting Station
Clear Clear  
Wind Chill: 44°   Ceiling: Unl
Heat Index: 46°   Visibility: 10mi
Dew Point: 22°   Wind: 6mph
Humidity: 38%   Direction: NA
Pressure: 30.21"   Gusts: NA
Location:  38.83°N, 77.19°W
Report Text: KDAA 231558Z AUTO VRB05KT 10SM CLR 08/M05 A3021 RMK AO2 SLP234 T00801055
Loading
Personal Weather Stations






























Interactive Weather Map New forecast layout! Learn more

10-Day Weather Forecast

Advertisements
Track Severe Weather on mobile